Time;durP1;ratioP1;P1;durP2;ratioP2;P2;SDS_P1;SDS_P2;PMS_P1;PMS_P2;Temp;Humidity;BMP_temperature;BMP_pressure;BME280_temperature;BME280_humidity;BME280_pressure;Samples;Min_cycle;Max_cycle;Signal;HPM_P1;HPM_P2
2022/03/02 00:02:05;;;;;;;;;;;;;;;;;;5057980;28;19913;-32
2022/03/02 00:04:31;;;;;;;;;;;;;;;;;;5056501;28;19929;-31
2022/03/02 00:06:57;;;;;;;;;;;;;;;;;;5057936;28;19978;-32
2022/03/02 00:09:23;;;;;;;;;;;;;;;;;;5057673;28;19913;-33
2022/03/02 00:11:49;;;;;;;;;;;;;;;;;;5058018;28;19919;-32
2022/03/02 00:14:15;;;;;;;;;;;;;;;;;;5057781;28;20258;-31
2022/03/02 00:16:41;;;;;;;;;;;;;;;;;;5057741;28;19920;-32
2022/03/02 00:19:08;;;;;;;;;;;;;;;;;;5057736;28;20002;-32
2022/03/02 00:21:35;;;;;;;;;;;;;;;;;;5057625;28;19917;-32
2022/03/02 00:24:04;;;;;;;;;;;;;;;;;;5057177;28;20381;-31
2022/03/02 00:26:30;;;;;;;;;;;;;;;;;;5057532;28;19912;-31
2022/03/02 00:28:56;;;;;;;;;;;;;;;;;;5057244;28;20271;-32
2022/03/02 00:31:22;;;;;;;;;;;;;;;;;;5056243;28;19917;-31
2022/03/02 00:33:48;;;;;;;;;;;;;;;;;;5057085;28;19924;-31
2022/03/02 00:36:14;;;;;;;;;;;;;;;;;;5057654;28;20251;-32
2022/03/02 00:38:40;;;;;;;;;;;;;;;;;;5057050;28;19995;-31
2022/03/02 00:41:06;;;;;;;;;;;;;;;;;;5057251;28;19913;-32
2022/03/02 00:43:32;;;;;;;;;;;;;;;;;;5056962;28;20389;-31
2022/03/02 00:45:58;;;;;;;;;;;;;;;;;;5056898;28;19988;-32
2022/03/02 00:48:24;;;;;;;;;;;;;;;;;;5056895;28;20016;-32
2022/03/02 00:50:50;;;;;;;;;;;;;;;;;;5057393;28;19913;-31
2022/03/02 00:53:16;;;;;;;;;;;;;;;;;;5056686;28;19958;-31
2022/03/02 00:55:42;;;;;;;;;;;;;;;;;;5057048;28;19913;-32
2022/03/02 00:58:08;;;;;;;;;;;;;;;;;;5057018;28;20373;-31
2022/03/02 01:00:34;;;;;;;;;;;;;;;;;;5057218;28;19924;-32
2022/03/02 01:03:00;;;;;;;;;;;;;;;;;;5056193;28;19921;-31
2022/03/02 01:05:26;;;;;;;;;;;;;;;;;;5056195;28;20344;-32
2022/03/02 01:07:52;;;;;;;;;;;;;;;;;;5055597;28;20249;-32
2022/03/02 01:10:18;;;;;;;;;;;;;;;;;;5056448;28;19912;-31
2022/03/02 01:12:44;;;;;;;;;;;;;;;;;;5056593;28;19912;-31
2022/03/02 01:15:10;;;;;;;;;;;;;;;;;;5056698;28;19913;-32
2022/03/02 01:17:36;;;;;;;;;;;;;;;;;;5055386;28;20355;-32
2022/03/02 01:20:02;;;;;;;;;;;;;;;;;;5055337;28;20000;-32
2022/03/02 01:22:28;;;;;;;;;;;;;;;;;;5056130;28;19945;-32
2022/03/02 01:24:55;;;;;;;;;;;;;;;;;;5056404;28;20289;-31
2022/03/02 01:27:21;;;;;;;;;;;;;;;;;;5056200;28;20243;-32
2022/03/02 01:29:47;;;;;;;;;;;;;;;;;;5055182;28;19920;-31
2022/03/02 01:32:13;;;;;;;;;;;;;;;;;;5056517;28;20332;-32
2022/03/02 01:34:39;;;;;;;;;;;;;;;;;;5055995;28;19915;-32
2022/03/02 01:37:05;;;;;;;;;;;;;;;;;;5056188;28;20301;-31
2022/03/02 01:39:31;;;;;;;;;;;;;;;;;;5056206;28;19983;-32
2022/03/02 01:41:57;;;;;;;;;;;;;;;;;;5054851;28;19913;-32
2022/03/02 01:44:23;;;;;;;;;;;;;;;;;;5056334;28;19975;-30
2022/03/02 01:46:49;;;;;;;;;;;;;;;;;;5054814;28;19983;-32
2022/03/02 01:49:15;;;;;;;;;;;;;;;;;;5055759;28;19912;-32
2022/03/02 01:51:41;;;;;;;;;;;;;;;;;;5055671;28;19913;-32
2022/03/02 01:54:08;;;;;;;;;;;;;;;;;;5055524;28;19909;-31
2022/03/02 01:56:34;;;;;;;;;;;;;;;;;;5055868;28;20297;-31
2022/03/02 01:59:00;;;;;;;;;;;;;;;;;;5055911;28;19964;-32
2022/03/02 02:01:26;;;;;;;;;;;;;;;;;;5055779;28;19920;-31
2022/03/02 02:03:52;;;;;;;;;;;;;;;;;;5054243;28;19920;-32
2022/03/02 02:06:18;;;;;;;;;;;;;;;;;;5055494;28;19920;-31
2022/03/02 02:08:44;;;;;;;;;;;;;;;;;;5054487;28;19921;-32
2022/03/02 02:11:10;;;;;;;;;;;;;;;;;;5055374;28;19924;-32
2022/03/02 02:13:36;;;;;;;;;;;;;;;;;;5055258;28;20248;-32
2022/03/02 02:16:02;;;;;;;;;;;;;;;;;;5054402;28;19912;-32
2022/03/02 02:18:28;;;;;;;;;;;;;;;;;;5055539;28;20256;-31
2022/03/02 02:20:54;;;;;;;;;;;;;;;;;;5054370;28;20007;-31
2022/03/02 02:23:20;;;;;;;;;;;;;;;;;;5055312;28;19916;-31
2022/03/02 02:25:46;;;;;;;;;;;;;;;;;;5055695;28;20331;-32
2022/03/02 02:28:12;;;;;;;;;;;;;;;;;;5055168;28;19924;-32
2022/03/02 02:30:38;;;;;;;;;;;;;;;;;;5055624;28;19970;-32
2022/03/02 02:33:04;;;;;;;;;;;;;;;;;;5054968;28;19928;-31
2022/03/02 02:35:30;;;;;;;;;;;;;;;;;;5054152;28;19912;-31
2022/03/02 02:37:56;;;;;;;;;;;;;;;;;;5054113;28;19923;-32
2022/03/02 02:40:22;;;;;;;;;;;;;;;;;;5054992;28;20268;-32
2022/03/02 02:42:48;;;;;;;;;;;;;;;;;;5055137;28;20001;-32
2022/03/02 02:45:15;;;;;;;;;;;;;;;;;;5054037;28;20339;-32
2022/03/02 02:47:41;;;;;;;;;;;;;;;;;;5055228;28;19936;-32
2022/03/02 02:50:07;;;;;;;;;;;;;;;;;;5054047;28;20319;-32
2022/03/02 02:52:33;;;;;;;;;;;;;;;;;;5053877;28;19974;-31
2022/03/02 02:54:59;;;;;;;;;;;;;;;;;;5054868;28;19967;-32
2022/03/02 02:57:25;;;;;;;;;;;;;;;;;;5055394;28;19917;-32
2022/03/02 02:59:51;;;;;;;;;;;;;;;;;;5054872;28;20232;-31
2022/03/02 03:02:17;;;;;;;;;;;;;;;;;;5054981;28;19913;-32
2022/03/02 03:04:44;;;;;;;;;;;;;;;;;;5054506;28;19920;-31
2022/03/02 03:07:11;;;;;;;;;;;;;;;;;;5054780;28;20421;-32
2022/03/02 03:09:36;;;;;;;;;;;;;;;;;;5054716;28;20015;-32
2022/03/02 03:12:02;;;;;;;;;;;;;;;;;;5054054;28;19940;-32
2022/03/02 03:14:28;;;;;;;;;;;;;;;;;;5053707;28;19920;-31
2022/03/02 03:16:54;;;;;;;;;;;;;;;;;;5055204;28;19913;-31
2022/03/02 03:19:20;;;;;;;;;;;;;;;;;;5054708;28;20336;-31
2022/03/02 03:21:46;;;;;;;;;;;;;;;;;;5053663;28;19912;-31
2022/03/02 03:24:12;;;;;;;;;;;;;;;;;;5053647;28;20267;-31
2022/03/02 03:26:38;;;;;;;;;;;;;;;;;;5054873;28;19925;-32
2022/03/02 03:29:04;;;;;;;;;;;;;;;;;;5058054;28;19916;-32
2022/03/02 03:31:30;;;;;;;;;;;;;;;;;;5058413;28;19913;-32
2022/03/02 03:33:56;;;;;;;;;;;;;;;;;;5057347;28;19913;-31
2022/03/02 03:36:22;;;;;;;;;;;;;;;;;;5058336;28;19913;-32
2022/03/02 03:38:49;;;;;;;;;;;;;;;;;;5057302;28;19990;-32
2022/03/02 03:41:15;;;;;;;;;;;;;;;;;;5058142;28;19913;-31
2022/03/02 03:43:41;;;;;;;;;;;;;;;;;;5057049;28;19913;-32
2022/03/02 03:46:08;;;;;;;;;;;;;;;;;;5058097;28;19956;-31
2022/03/02 03:48:34;;;;;;;;;;;;;;;;;;5058006;28;20344;-32
2022/03/02 03:51:00;;;;;;;;;;;;;;;;;;5058022;28;19920;-30
2022/03/02 03:53:26;;;;;;;;;;;;;;;;;;5056968;28;20002;-31
2022/03/02 03:55:52;;;;;;;;;;;;;;;;;;5058185;28;20260;-31
2022/03/02 03:58:18;;;;;;;;;;;;;;;;;;5057856;28;19909;-31
2022/03/02 04:00:44;;;;;;;;;;;;;;;;;;5057780;28;19917;-32
2022/03/02 04:03:11;;;;;;;;;;;;;;;;;;5057719;28;20394;-32
2022/03/02 04:05:37;;;;;;;;;;;;;;;;;;5057974;28;19992;-31
2022/03/02 04:08:03;;;;;;;;;;;;;;;;;;5057894;28;19970;-32
2022/03/02 04:10:29;;;;;;;;;;;;;;;;;;5057670;28;19936;-32
2022/03/02 04:12:55;;;;;;;;;;;;;;;;;;5057499;28;19928;-32
2022/03/02 04:15:22;;;;;;;;;;;;;;;;;;5058125;28;19923;-32
2022/03/02 04:17:48;;;;;;;;;;;;;;;;;;5058086;28;19920;-33
2022/03/02 04:20:14;;;;;;;;;;;;;;;;;;5057383;28;19917;-32
2022/03/02 04:22:40;;;;;;;;;;;;;;;;;;5057246;28;19909;-32
2022/03/02 04:25:06;;;;;;;;;;;;;;;;;;5056455;28;19913;-31
2022/03/02 04:27:32;;;;;;;;;;;;;;;;;;5057283;28;19979;-32
2022/03/02 04:29:58;;;;;;;;;;;;;;;;;;5057550;28;19921;-31
2022/03/02 04:32:24;;;;;;;;;;;;;;;;;;5057312;28;20007;-31
2022/03/02 04:34:50;;;;;;;;;;;;;;;;;;5057136;28;19952;-32
2022/03/02 04:37:17;;;;;;;;;;;;;;;;;;5057089;28;19952;-32
2022/03/02 04:39:44;;;;;;;;;;;;;;;;;;5056052;28;20413;-32
2022/03/02 04:42:10;;;;;;;;;;;;;;;;;;5056930;28;19913;-31
2022/03/02 04:44:36;;;;;;;;;;;;;;;;;;5056988;28;19925;-31
2022/03/02 04:47:02;;;;;;;;;;;;;;;;;;5057170;28;20374;-31
2022/03/02 04:49:28;;;;;;;;;;;;;;;;;;5056924;28;19908;-32
2022/03/02 04:51:55;;;;;;;;;;;;;;;;;;5055822;28;20012;-32
2022/03/02 04:57:05;;;;;;;;;;;;;;;;;;5056600;28;19979;-32
2022/03/02 04:59:31;;;;;;;;;;;;;;;;;;5056615;28;20431;-31
2022/03/02 05:01:57;;;;;;;;;;;;;;;;;;5056870;28;19917;-32
2022/03/02 05:04:23;;;;;;;;;;;;;;;;;;5056145;28;19920;-32
2022/03/02 05:06:49;;;;;;;;;;;;;;;;;;5056688;28;20317;-32
2022/03/02 05:09:15;;;;;;;;;;;;;;;;;;5056797;28;19909;-31
2022/03/02 05:11:41;;;;;;;;;;;;;;;;;;5056315;28;19912;-33
2022/03/02 05:14:07;;;;;;;;;;;;;;;;;;5056136;28;20022;-33
2022/03/02 05:16:33;;;;;;;;;;;;;;;;;;5055455;28;19913;-32
2022/03/02 05:18:59;;;;;;;;;;;;;;;;;;5056165;28;20278;-32
2022/03/02 05:21:25;;;;;;;;;;;;;;;;;;5056183;28;19970;-31
2022/03/02 05:23:51;;;;;;;;;;;;;;;;;;5056086;28;20359;-31
2022/03/02 05:26:17;;;;;;;;;;;;;;;;;;5056159;28;20003;-32
2022/03/02 05:28:43;;;;;;;;;;;;;;;;;;5056264;28;20267;-33
2022/03/02 05:31:09;;;;;;;;;;;;;;;;;;5056263;28;19909;-31
2022/03/02 05:33:35;;;;;;;;;;;;;;;;;;5055808;28;20003;-32
2022/03/02 05:36:01;;;;;;;;;;;;;;;;;;5055721;28;19996;-31
2022/03/02 05:38:27;;;;;;;;;;;;;;;;;;5055768;28;19908;-31
2022/03/02 05:40:53;;;;;;;;;;;;;;;;;;5055896;28;19920;-31
2022/03/02 05:43:19;;;;;;;;;;;;;;;;;;5055470;28;19925;-32
2022/03/02 05:45:45;;;;;;;;;;;;;;;;;;5056118;28;19960;-32
2022/03/02 05:48:11;;;;;;;;;;;;;;;;;;5056143;28;19913;-31
2022/03/02 05:50:37;;;;;;;;;;;;;;;;;;5054541;28;20003;-32
2022/03/02 05:53:03;;;;;;;;;;;;;;;;;;5055545;28;19912;-32
2022/03/02 05:55:29;;;;;;;;;;;;;;;;;;5056076;28;19976;-31
2022/03/02 05:57:55;;;;;;;;;;;;;;;;;;5055478;28;19936;-31
2022/03/02 06:00:21;;;;;;;;;;;;;;;;;;5055246;28;19913;-31
2022/03/02 06:02:47;;;;;;;;;;;;;;;;;;5054984;28;19962;-31
2022/03/02 06:05:14;;;;;;;;;;;;;;;;;;5055622;28;20336;-31
2022/03/02 06:07:40;;;;;;;;;;;;;;;;;;5055286;28;19939;-31
2022/03/02 06:10:06;;;;;;;;;;;;;;;;;;5055462;28;19912;-31
2022/03/02 06:12:32;;;;;;;;;;;;;;;;;;5055184;28;20412;-32
2022/03/02 06:14:58;;;;;;;;;;;;;;;;;;5055695;28;19913;-33
2022/03/02 06:17:26;;;;;;;;;;;;;;;;;;5055114;28;19917;-31
2022/03/02 06:19:52;;;;;;;;;;;;;;;;;;5055359;28;19924;-31
2022/03/02 06:22:18;;;;;;;;;;;;;;;;;;5055120;28;19912;-31
2022/03/02 06:24:44;;;;;;;;;;;;;;;;;;5055324;28;20455;-31
2022/03/02 06:27:10;;;;;;;;;;;;;;;;;;5055285;28;19936;-32
2022/03/02 06:29:36;;;;;;;;;;;;;;;;;;5055244;28;19913;-32
2022/03/02 06:32:02;;;;;;;;;;;;;;;;;;5055006;28;20271;-31
2022/03/02 06:34:28;;;;;;;;;;;;;;;;;;5054932;28;19913;-31
2022/03/02 06:36:54;;;;;;;;;;;;;;;;;;5054905;28;19920;-30
2022/03/02 06:39:20;;;;;;;;;;;;;;;;;;5055151;28;20260;-31
2022/03/02 06:41:46;;;;;;;;;;;;;;;;;;5054639;28;19912;-30
2022/03/02 06:44:12;;;;;;;;;;;;;;;;;;5054659;28;19912;-32
2022/03/02 06:46:39;;;;;;;;;;;;;;;;;;5054539;28;19913;-31
2022/03/02 06:49:06;;;;;;;;;;;;;;;;;;5053735;28;19917;-32
2022/03/02 06:51:32;;;;;;;;;;;;;;;;;;5053812;28;19936;-31
2022/03/02 06:53:58;;;;;;;;;;;;;;;;;;5053718;28;19920;-31
2022/03/02 06:56:24;;;;;;;;;;;;;;;;;;5054631;28;19917;-31
2022/03/02 06:58:50;;;;;;;;;;;;;;;;;;5054984;28;19909;-32
2022/03/02 07:01:16;;;;;;;;;;;;;;;;;;5054605;28;19913;-31
2022/03/02 07:03:42;;;;;;;;;;;;;;;;;;5057251;28;19921;-32
2022/03/02 07:06:08;;;;;;;;;;;;;;;;;;5058866;28;19917;-32
2022/03/02 07:08:34;;;;;;;;;;;;;;;;;;5058749;28;19916;-31
2022/03/02 07:11:00;;;;;;;;;;;;;;;;;;5059445;28;19909;-33
2022/03/02 07:13:29;;;;;;;;;;;;;;;;;;5058586;28;19924;-31
2022/03/02 07:15:55;;;;;;;;;;;;;;;;;;5057336;28;20381;-29
2022/03/02 07:18:21;;;;;;;;;;;;;;;;;;5058332;28;19913;-32
2022/03/02 07:20:47;;;;;;;;;;;;;;;;;;5058213;28;19909;-31
2022/03/02 07:23:13;;;;;;;;;;;;;;;;;;5058190;28;20366;-32
2022/03/02 07:25:39;;;;;;;;;;;;;;;;;;5058437;28;19913;-31
2022/03/02 07:28:05;;;;;;;;;;;;;;;;;;5058317;28;19917;-32
2022/03/02 07:30:31;;;;;;;;;;;;;;;;;;5058320;28;19919;-31
2022/03/02 07:32:57;;;;;;;;;;;;;;;;;;5058346;28;19923;-31
2022/03/02 07:35:23;;;;;;;;;;;;;;;;;;5058291;28;20342;-31
2022/03/02 07:37:49;;;;;;;;;;;;;;;;;;5058144;28;19951;-31
2022/03/02 07:40:15;;;;;;;;;;;;;;;;;;5058630;28;19913;-31
2022/03/02 07:42:41;;;;;;;;;;;;;;;;;;5057948;28;20016;-31
2022/03/02 07:45:07;;;;;;;;;;;;;;;;;;5058397;28;20007;-31
2022/03/02 07:47:33;;;;;;;;;;;;;;;;;;5057794;28;19912;-31
2022/03/02 07:50:00;;;;;;;;;;;;;;;;;;5056888;28;19913;-32
2022/03/02 07:52:25;;;;;;;;;;;;;;;;;;5057670;28;19920;-30
2022/03/02 07:54:52;;;;;;;;;;;;;;;;;;5056686;28;19913;-31
2022/03/02 07:57:18;;;;;;;;;;;;;;;;;;5057868;28;19924;-31
2022/03/02 07:59:44;;;;;;;;;;;;;;;;;;5056736;28;20003;-32
2022/03/02 08:02:10;;;;;;;;;;;;;;;;;;5057514;28;20322;-32
2022/03/02 08:04:36;;;;;;;;;;;;;;;;;;5058080;28;20251;-32
2022/03/02 08:07:02;;;;;;;;;;;;;;;;;;5057526;28;19970;-32
2022/03/02 08:09:28;;;;;;;;;;;;;;;;;;5057416;28;19920;-32
2022/03/02 08:11:54;;;;;;;;;;;;;;;;;;5057767;28;19916;-32
2022/03/02 08:14:23;;;;;;;;;;;;;;;;;;5057563;28;19995;-34
2022/03/02 08:16:49;;;;;;;;;;;;;;;;;;5057261;28;19913;-32
2022/03/02 08:19:17;;;;;;;;;;;;;;;;;;5057202;28;19908;-31
2022/03/02 08:21:43;;;;;;;;;;;;;;;;;;5057491;28;19920;-31
2022/03/02 08:24:09;;;;;;;;;;;;;;;;;;5057020;28;19921;-31
2022/03/02 08:26:35;;;;;;;;;;;;;;;;;;5057013;28;19912;-31
2022/03/02 08:29:01;;;;;;;;;;;;;;;;;;5056006;28;19909;-32
2022/03/02 08:31:27;;;;;;;;;;;;;;;;;;5057218;28;19913;-32
2022/03/02 08:33:53;;;;;;;;;;;;;;;;;;5056937;28;19912;-33
2022/03/02 08:36:22;;;;;;;;;;;;;;;;;;5056922;28;20351;-31
2022/03/02 08:38:48;;;;;;;;;;;;;;;;;;5057027;28;19908;-32
2022/03/02 08:41:14;;;;;;;;;;;;;;;;;;5056833;28;19970;-32
2022/03/02 08:43:40;;;;;;;;;;;;;;;;;;5055590;28;20258;-31
2022/03/02 08:46:07;;;;;;;;;;;;;;;;;;5056735;28;19909;-31
2022/03/02 08:48:33;;;;;;;;;;;;;;;;;;5056761;28;19974;-32
2022/03/02 08:50:59;;;;;;;;;;;;;;;;;;5056888;28;19913;-31
2022/03/02 08:53:25;;;;;;;;;;;;;;;;;;5056537;28;19932;-32
2022/03/02 08:55:51;;;;;;;;;;;;;;;;;;5056898;28;19909;-31
2022/03/02 08:58:17;;;;;;;;;;;;;;;;;;5056499;28;19984;-32
2022/03/02 09:00:43;;;;;;;;;;;;;;;;;;5056933;28;19909;-31
2022/03/02 09:03:09;;;;;;;;;;;;;;;;;;5056329;28;19927;-31
2022/03/02 09:05:36;;;;;;;;;;;;;;;;;;5055423;28;19935;-33
2022/03/02 09:08:02;;;;;;;;;;;;;;;;;;5056429;28;19909;-32
2022/03/02 09:10:29;;;;;;;;;;;;;;;;;;5056305;28;19935;-33
2022/03/02 09:12:56;;;;;;;;;;;;;;;;;;5056283;28;19913;-31
2022/03/02 09:15:22;;;;;;;;;;;;;;;;;;5055257;28;20251;-30
2022/03/02 09:17:49;;;;;;;;;;;;;;;;;;5056800;28;19945;-31
2022/03/02 09:20:15;;;;;;;;;;;;;;;;;;5056011;28;19923;-31
2022/03/02 09:22:41;;;;;;;;;;;;;;;;;;5056126;28;19909;-32
2022/03/02 09:25:07;;;;;;;;;;;;;;;;;;5055250;28;19924;-32
2022/03/02 09:27:33;;;;;;;;;;;;;;;;;;5055749;28;19908;-31
2022/03/02 09:29:59;;;;;;;;;;;;;;;;;;5056142;28;20255;-32
2022/03/02 09:32:25;;;;;;;;;;;;;;;;;;5056060;28;19909;-33
2022/03/02 09:34:52;;;;;;;;;;;;;;;;;;5056025;28;20332;-33
2022/03/02 09:37:18;;;;;;;;;;;;;;;;;;5055946;28;19962;-32
2022/03/02 09:39:44;;;;;;;;;;;;;;;;;;5054814;28;19991;-31
2022/03/02 09:42:10;;;;;;;;;;;;;;;;;;5054900;28;19909;-33
2022/03/02 09:44:36;;;;;;;;;;;;;;;;;;5056128;28;19917;-31
2022/03/02 09:47:03;;;;;;;;;;;;;;;;;;5055851;28;19912;-32
2022/03/02 09:49:29;;;;;;;;;;;;;;;;;;5055746;28;19913;-32
2022/03/02 09:51:55;;;;;;;;;;;;;;;;;;5055880;28;20339;-32
2022/03/02 09:54:21;;;;;;;;;;;;;;;;;;5055661;28;20012;-31
2022/03/02 09:56:46;;;;;;;;;;;;;;;;;;5055514;28;20306;-31
2022/03/02 09:59:13;;;;;;;;;;;;;;;;;;5055506;28;19909;-31
2022/03/02 10:01:39;;;;;;;;;;;;;;;;;;5055891;28;19970;-32
2022/03/02 10:04:06;;;;;;;;;;;;;;;;;;5054113;28;19952;-31
2022/03/02 10:06:32;;;;;;;;;;;;;;;;;;5055426;28;19924;-32
2022/03/02 10:08:58;;;;;;;;;;;;;;;;;;5055403;28;20335;-31
2022/03/02 10:11:24;;;;;;;;;;;;;;;;;;5055423;28;19927;-31
2022/03/02 10:13:50;;;;;;;;;;;;;;;;;;5055305;28;19920;-32
2022/03/02 10:16:16;;;;;;;;;;;;;;;;;;5055285;28;19978;-32
2022/03/02 10:18:42;;;;;;;;;;;;;;;;;;5055207;28;19917;-31
2022/03/02 10:21:08;;;;;;;;;;;;;;;;;;5055226;28;19908;-33
2022/03/02 10:23:34;;;;;;;;;;;;;;;;;;5053764;28;20363;-32
2022/03/02 10:26:03;;;;;;;;;;;;;;;;;;5055371;28;20003;-31
2022/03/02 10:28:29;;;;;;;;;;;;;;;;;;5055003;28;20351;-31
2022/03/02 10:30:55;;;;;;;;;;;;;;;;;;5054873;28;19908;-32
2022/03/02 10:33:22;;;;;;;;;;;;;;;;;;5054780;28;19966;-31
2022/03/02 10:35:48;;;;;;;;;;;;;;;;;;5053871;28;20201;-31
2022/03/02 10:38:14;;;;;;;;;;;;;;;;;;5052816;28;20318;-32
2022/03/02 10:40:40;;;;;;;;;;;;;;;;;;5055062;28;19920;-32
2022/03/02 10:43:06;;;;;;;;;;;;;;;;;;5054664;28;19909;-31
2022/03/02 10:45:32;;;;;;;;;;;;;;;;;;5054870;28;20310;-31
2022/03/02 10:47:58;;;;;;;;;;;;;;;;;;5054423;28;19920;-31
2022/03/02 10:50:24;;;;;;;;;;;;;;;;;;5054952;28;19920;-31
2022/03/02 10:52:50;;;;;;;;;;;;;;;;;;5053804;28;20336;-30
2022/03/02 10:55:16;;;;;;;;;;;;;;;;;;5055015;28;19931;-33
2022/03/02 10:57:42;;;;;;;;;;;;;;;;;;5054993;28;20287;-32
2022/03/02 11:00:09;;;;;;;;;;;;;;;;;;5054942;28;20260;-32
2022/03/02 11:02:35;;;;;;;;;;;;;;;;;;5054792;28;19912;-32
2022/03/02 11:05:01;;;;;;;;;;;;;;;;;;5054953;28;20025;-32
2022/03/02 11:07:27;;;;;;;;;;;;;;;;;;5054496;28;19913;-32
2022/03/02 11:09:53;;;;;;;;;;;;;;;;;;5054494;28;20332;-31
2022/03/02 11:12:22;;;;;;;;;;;;;;;;;;5055018;28;19962;-31
2022/03/02 11:14:48;;;;;;;;;;;;;;;;;;5054719;28;19995;-31
2022/03/02 11:17:14;;;;;;;;;;;;;;;;;;5054543;28;20339;-33
2022/03/02 11:19:40;;;;;;;;;;;;;;;;;;5054847;28;20299;-31
2022/03/02 11:22:06;;;;;;;;;;;;;;;;;;5054452;28;19966;-31
2022/03/02 11:24:33;;;;;;;;;;;;;;;;;;5053296;28;20264;-32
2022/03/02 11:26:59;;;;;;;;;;;;;;;;;;5054312;28;20012;-32
2022/03/02 11:29:27;;;;;;;;;;;;;;;;;;5054458;28;20355;-33
2022/03/02 11:31:54;;;;;;;;;;;;;;;;;;5054429;28;19912;-32
2022/03/02 11:34:20;;;;;;;;;;;;;;;;;;5054543;28;19952;-31
2022/03/02 11:36:46;;;;;;;;;;;;;;;;;;5053446;28;19913;-32
2022/03/02 11:39:12;;;;;;;;;;;;;;;;;;5053500;28;19913;-34
2022/03/02 11:41:38;;;;;;;;;;;;;;;;;;5054246;28;19982;-32
2022/03/02 11:44:05;;;;;;;;;;;;;;;;;;5054044;28;20371;-32
2022/03/02 11:46:31;;;;;;;;;;;;;;;;;;5054533;28;19935;-32
2022/03/02 11:48:58;;;;;;;;;;;;;;;;;;5056379;28;19909;-33
2022/03/02 11:51:25;;;;;;;;;;;;;;;;;;5057848;28;19920;-32
2022/03/02 11:53:51;;;;;;;;;;;;;;;;;;5057581;28;19909;-31
2022/03/02 11:56:17;;;;;;;;;;;;;;;;;;5057689;28;19913;-31
2022/03/02 11:58:43;;;;;;;;;;;;;;;;;;5057624;28;19916;-31
2022/03/02 12:01:09;;;;;;;;;;;;;;;;;;5057688;28;20244;-32
2022/03/02 12:03:37;;;;;;;;;;;;;;;;;;5057347;28;19928;-31
2022/03/02 12:06:03;;;;;;;;;;;;;;;;;;5057668;28;20000;-31
2022/03/02 12:08:29;;;;;;;;;;;;;;;;;;5058012;28;19919;-32
2022/03/02 12:10:57;;;;;;;;;;;;;;;;;;5057529;28;19913;-32
2022/03/02 12:13:23;;;;;;;;;;;;;;;;;;5056817;28;19928;-31
2022/03/02 12:15:49;;;;;;;;;;;;;;;;;;5057475;28;19950;-32
2022/03/02 12:18:15;;;;;;;;;;;;;;;;;;5056535;28;20275;-31
2022/03/02 12:20:41;;;;;;;;;;;;;;;;;;5057686;28;20387;-32
2022/03/02 12:23:07;;;;;;;;;;;;;;;;;;5057401;28;19913;-32
2022/03/02 12:25:33;;;;;;;;;;;;;;;;;;5057326;28;19966;-32
2022/03/02 12:28:00;;;;;;;;;;;;;;;;;;5057759;28;20239;-32
2022/03/02 12:30:26;;;;;;;;;;;;;;;;;;5056240;28;19913;-31
2022/03/02 12:32:52;;;;;;;;;;;;;;;;;;5057239;28;19921;-32
2022/03/02 12:35:22;;;;;;;;;;;;;;;;;;5057152;28;19913;-32
2022/03/02 12:37:48;;;;;;;;;;;;;;;;;;5057286;28;20278;-31
2022/03/02 12:40:14;;;;;;;;;;;;;;;;;;5057116;28;19917;-31
2022/03/02 12:42:40;;;;;;;;;;;;;;;;;;5055888;28;19913;-32
2022/03/02 12:45:06;;;;;;;;;;;;;;;;;;5056925;28;19917;-32
2022/03/02 12:47:32;;;;;;;;;;;;;;;;;;5057098;28;19916;-32
2022/03/02 12:49:58;;;;;;;;;;;;;;;;;;5057170;28;20008;-32
2022/03/02 12:52:25;;;;;;;;;;;;;;;;;;5057238;28;19960;-32
2022/03/02 12:54:52;;;;;;;;;;;;;;;;;;5056762;28;20035;-32
2022/03/02 12:57:18;;;;;;;;;;;;;;;;;;5055803;28;19919;-32
2022/03/02 12:59:45;;;;;;;;;;;;;;;;;;5055849;28;19917;-31
2022/03/02 13:02:11;;;;;;;;;;;;;;;;;;5056987;28;19967;-32
2022/03/02 13:04:37;;;;;;;;;;;;;;;;;;5056434;28;20294;-31
2022/03/02 13:07:03;;;;;;;;;;;;;;;;;;5056576;28;20004;-32
2022/03/02 13:09:29;;;;;;;;;;;;;;;;;;5055623;28;19912;-32
2022/03/02 13:11:55;;;;;;;;;;;;;;;;;;5056933;28;19912;-32
2022/03/02 13:14:21;;;;;;;;;;;;;;;;;;5057054;28;19917;-32
2022/03/02 13:16:48;;;;;;;;;;;;;;;;;;5055224;28;19912;-31
2022/03/02 13:19:14;;;;;;;;;;;;;;;;;;5056223;28;19921;-32
2022/03/02 13:21:40;;;;;;;;;;;;;;;;;;5056290;28;19912;-31
2022/03/02 13:24:07;;;;;;;;;;;;;;;;;;5056769;28;19924;-32
2022/03/02 13:26:34;;;;;;;;;;;;;;;;;;5056190;28;19923;-32
2022/03/02 13:29:00;;;;;;;;;;;;;;;;;;5056161;28;19909;-32
2022/03/02 13:31:26;;;;;;;;;;;;;;;;;;5056320;28;20348;-32
2022/03/02 13:33:55;;;;;;;;;;;;;;;;;;5055736;28;19908;-32
2022/03/02 13:36:21;;;;;;;;;;;;;;;;;;5055887;28;20004;-32
2022/03/02 13:38:47;;;;;;;;;;;;;;;;;;5055900;28;19962;-32
2022/03/02 13:41:13;;;;;;;;;;;;;;;;;;5055639;28;19913;-31
2022/03/02 13:43:39;;;;;;;;;;;;;;;;;;5054357;28;19917;-31
2022/03/02 13:46:05;;;;;;;;;;;;;;;;;;5055541;28;19909;-32
2022/03/02 13:48:31;;;;;;;;;;;;;;;;;;5055472;28;19912;-31
2022/03/02 13:50:57;;;;;;;;;;;;;;;;;;5055974;28;19920;-32
2022/03/02 13:53:23;;;;;;;;;;;;;;;;;;5055297;28;19913;-31
2022/03/02 13:55:49;;;;;;;;;;;;;;;;;;5055292;28;20386;-32
2022/03/02 13:58:15;;;;;;;;;;;;;;;;;;5055151;28;19913;-30
2022/03/02 14:00:41;;;;;;;;;;;;;;;;;;5055558;28;19916;-41
2022/03/02 14:03:07;;;;;;;;;;;;;;;;;;5054911;28;19943;-31
2022/03/02 14:05:33;;;;;;;;;;;;;;;;;;5055441;28;19955;-32
2022/03/02 14:07:59;;;;;;;;;;;;;;;;;;5055646;28;19913;-30
2022/03/02 14:10:25;;;;;;;;;;;;;;;;;;5055090;28;19913;-32
2022/03/02 14:12:51;;;;;;;;;;;;;;;;;;5055156;28;19908;-31
2022/03/02 14:15:17;;;;;;;;;;;;;;;;;;5054967;28;20263;-31
2022/03/02 14:17:46;;;;;;;;;;;;;;;;;;5054039;28;19912;-30
2022/03/02 14:20:15;;;;;;;;;;;;;;;;;;5054286;28;20440;-32
2022/03/02 14:22:41;;;;;;;;;;;;;;;;;;5055294;28;20271;-32
2022/03/02 14:25:07;;;;;;;;;;;;;;;;;;5055132;28;19912;-31
2022/03/02 14:27:34;;;;;;;;;;;;;;;;;;5055195;28;19916;-32
2022/03/02 14:30:00;;;;;;;;;;;;;;;;;;5055417;28;20324;-31
2022/03/02 14:32:26;;;;;;;;;;;;;;;;;;5054831;28;19971;-31
2022/03/02 14:34:52;;;;;;;;;;;;;;;;;;5055398;28;19909;-31
2022/03/02 14:37:18;;;;;;;;;;;;;;;;;;5053996;28;20259;-32
2022/03/02 14:39:44;;;;;;;;;;;;;;;;;;5054997;28;19909;-32
2022/03/02 14:42:10;;;;;;;;;;;;;;;;;;5055410;28;19913;-33
2022/03/02 14:44:36;;;;;;;;;;;;;;;;;;5053918;28;20015;-32
2022/03/02 14:47:03;;;;;;;;;;;;;;;;;;5054867;28;20383;-32
2022/03/02 14:49:29;;;;;;;;;;;;;;;;;;5054802;28;20339;-32
2022/03/02 14:51:58;;;;;;;;;;;;;;;;;;5055684;28;19973;-30
2022/03/02 14:54:24;;;;;;;;;;;;;;;;;;5055027;28;19936;-30
2022/03/02 14:56:50;;;;;;;;;;;;;;;;;;5054965;28;19913;-32
2022/03/02 14:59:17;;;;;;;;;;;;;;;;;;5053713;28;19912;-31
2022/03/02 15:01:43;;;;;;;;;;;;;;;;;;5054872;28;19913;-32
2022/03/02 15:04:09;;;;;;;;;;;;;;;;;;5054332;28;19920;-31
2022/03/02 15:06:38;;;;;;;;;;;;;;;;;;5054868;28;20333;-31
2022/03/02 15:09:04;;;;;;;;;;;;;;;;;;5054909;28;19963;-31
2022/03/02 15:11:30;;;;;;;;;;;;;;;;;;5054771;28;19913;-31
2022/03/02 15:16:41;;;;;;;;;;;;;;;;;;5054642;28;19923;-30
2022/03/02 15:19:07;;;;;;;;;;;;;;;;;;5054601;28;20255;-31
2022/03/02 15:21:33;;;;;;;;;;;;;;;;;;5055101;28;19912;-31
2022/03/02 15:23:59;;;;;;;;;;;;;;;;;;5055035;28;20008;-32
2022/03/02 15:26:25;;;;;;;;;;;;;;;;;;5058335;28;19912;-31
2022/03/02 15:28:51;;;;;;;;;;;;;;;;;;5058427;28;20287;-32
2022/03/02 15:31:17;;;;;;;;;;;;;;;;;;5058469;28;19919;-31
2022/03/02 15:33:43;;;;;;;;;;;;;;;;;;5059157;28;20335;-31
2022/03/02 15:36:11;;;;;;;;;;;;;;;;;;5058948;28;19912;-31
2022/03/02 15:38:37;;;;;;;;;;;;;;;;;;5058180;28;19909;-30
2022/03/02 15:41:03;;;;;;;;;;;;;;;;;;5058318;28;19916;-31
2022/03/02 15:43:29;;;;;;;;;;;;;;;;;;5058039;28;19921;-32
2022/03/02 15:45:55;;;;;;;;;;;;;;;;;;5058461;28;20310;-32
2022/03/02 15:48:24;;;;;;;;;;;;;;;;;;5058291;28;19913;-34
2022/03/02 15:50:51;;;;;;;;;;;;;;;;;;5058274;28;19935;-32
2022/03/02 15:53:17;;;;;;;;;;;;;;;;;;5057748;28;19913;-33
2022/03/02 15:55:43;;;;;;;;;;;;;;;;;;5057855;28;19920;-31
2022/03/02 15:58:09;;;;;;;;;;;;;;;;;;5058791;28;19995;-32
2022/03/02 16:00:35;;;;;;;;;;;;;;;;;;5057931;28;19944;-31
2022/03/02 16:03:01;;;;;;;;;;;;;;;;;;5056350;28;19916;-31
2022/03/02 16:05:27;;;;;;;;;;;;;;;;;;5058083;28;19944;-32
2022/03/02 16:07:53;;;;;;;;;;;;;;;;;;5057628;28;19909;-31
2022/03/02 16:10:19;;;;;;;;;;;;;;;;;;5057486;28;20400;-32
2022/03/02 16:12:48;;;;;;;;;;;;;;;;;;5057807;28;19989;-31
2022/03/02 16:15:14;;;;;;;;;;;;;;;;;;5057474;28;20065;-32
2022/03/02 16:17:40;;;;;;;;;;;;;;;;;;5057431;28;19913;-31
2022/03/02 16:20:06;;;;;;;;;;;;;;;;;;5057925;28;19916;-31
2022/03/02 16:22:33;;;;;;;;;;;;;;;;;;5056256;28;20367;-32
2022/03/02 16:24:58;;;;;;;;;;;;;;;;;;5057576;28;20239;-32
2022/03/02 16:27:26;;;;;;;;;;;;;;;;;;5057430;28;19917;-32
2022/03/02 16:29:52;;;;;;;;;;;;;;;;;;5057454;28;20348;-32
2022/03/02 16:32:18;;;;;;;;;;;;;;;;;;5057071;28;20004;-30
2022/03/02 16:34:46;;;;;;;;;;;;;;;;;;5055941;28;19913;-31
2022/03/02 16:37:12;;;;;;;;;;;;;;;;;;5057190;28;19921;-31
2022/03/02 16:39:38;;;;;;;;;;;;;;;;;;5057040;28;19909;-31
2022/03/02 16:42:04;;;;;;;;;;;;;;;;;;5056803;28;19916;-30
2022/03/02 16:44:34;;;;;;;;;;;;;;;;;;5056044;28;19913;-32